Time;durP1;ratioP1;P1;durP2;ratioP2;P2;SDS_P1;SDS_P2;PMS_P1;PMS_P2;Temp;Humidity;BMP_temperature;BMP_pressure;BME280_temperature;BME280_humidity;BME280_pressure;Samples;Min_cycle;Max_cycle;Signal;HPM_P1;HPM_P2
2023/12/20 00:01:24;;;;;;;13.70;8.05;;;8.60;99.90;;;;;;4169735;28;20036;-74
2023/12/20 00:03:25;;;;;;;13.25;7.47;;;8.60;99.90;;;;;;4168081;28;20034;-75
2023/12/20 00:05:25;;;;;;;12.73;7.45;;;8.60;99.90;;;;;;4155724;28;20430;-75
2023/12/20 00:07:26;;;;;;;13.75;7.30;;;8.60;99.90;;;;;;4162795;28;20087;-75
2023/12/20 00:09:27;;;;;;;13.25;7.55;;;8.60;99.90;;;;;;4137434;28;20048;-74
2023/12/20 00:11:28;;;;;;;11.52;7.68;;;8.50;99.90;;;;;;4159520;28;20038;-75
2023/12/20 00:13:28;;;;;;;12.73;7.55;;;8.50;99.90;;;;;;4153553;28;20049;-75
2023/12/20 00:15:29;;;;;;;13.30;7.05;;;8.50;99.90;;;;;;4160106;28;20561;-75
2023/12/20 00:17:29;;;;;;;11.77;7.35;;;8.50;99.90;;;;;;4159613;28;20032;-74
2023/12/20 00:19:30;;;;;;;10.23;6.13;;;8.40;99.90;;;;;;4162128;28;20042;-74
2023/12/20 00:21:30;;;;;;;15.18;7.22;;;8.40;99.90;;;;;;4167588;28;20041;-75
2023/12/20 00:23:31;;;;;;;11.65;6.95;;;8.40;99.90;;;;;;4165271;28;20034;-75
2023/12/20 00:25:32;;;;;;;12.95;6.80;;;8.50;99.90;;;;;;4171720;28;20036;-74
2023/12/20 00:27:32;;;;;;;10.93;6.85;;;8.40;99.90;;;;;;4163894;28;20030;-74
2023/12/20 00:29:33;;;;;;;12.20;6.50;;;8.40;99.90;;;;;;4167589;28;20041;-75
2023/12/20 00:31:33;;;;;;;11.98;7.10;;;8.40;99.90;;;;;;4170352;28;20025;-74
2023/12/20 00:33:34;;;;;;;11.35;7.43;;;8.40;99.90;;;;;;4158425;28;20036;-74
2023/12/20 00:35:35;;;;;;;15.90;7.55;;;8.40;99.90;;;;;;4163160;28;20055;-74
2023/12/20 00:37:35;;;;;;;11.60;6.68;;;8.40;99.90;;;;;;4163819;28;20041;-75
2023/12/20 00:39:36;;;;;;;13.32;7.32;;;8.40;99.90;;;;;;4159448;28;20064;-75
2023/12/20 00:41:37;;;;;;;11.18;6.85;;;8.50;99.90;;;;;;4169413;28;20403;-75
2023/12/20 00:43:37;;;;;;;16.67;7.53;;;8.40;99.90;;;;;;4166159;28;20037;-76
2023/12/20 00:45:39;;;;;;;16.70;9.10;;;8.40;99.90;;;;;;4167575;28;20441;-75
2023/12/20 00:47:39;;;;;;;20.15;9.20;;;8.40;99.90;;;;;;4167652;28;20064;-75
2023/12/20 00:49:40;;;;;;;15.32;8.95;;;8.30;99.90;;;;;;4158382;28;20057;-74
2023/12/20 00:51:40;;;;;;;14.82;7.95;;;8.30;99.90;;;;;;4165051;28;20123;-75
2023/12/20 00:53:41;;;;;;;14.70;7.40;;;8.30;99.90;;;;;;4171177;28;20490;-75
2023/12/20 00:55:44;;;;;;;14.85;7.63;;;8.30;99.90;;;;;;4168573;28;20486;-74
2023/12/20 00:57:44;;;;;;;15.70;7.72;;;8.30;99.90;;;;;;4163430;28;20502;-74
2023/12/20 00:59:45;;;;;;;12.52;6.78;;;8.30;99.90;;;;;;4162196;28;20040;-75
2023/12/20 01:01:45;;;;;;;11.63;7.32;;;8.30;99.90;;;;;;4169747;28;20075;-75
2023/12/20 01:03:46;;;;;;;15.15;7.47;;;8.30;99.90;;;;;;4161435;28;20045;-75
2023/12/20 01:05:47;;;;;;;13.77;7.22;;;8.20;99.90;;;;;;4162429;28;20135;-75
2023/12/20 01:07:48;;;;;;;17.83;6.60;;;8.30;99.90;;;;;;4173376;28;20520;-75
2023/12/20 01:09:48;;;;;;;15.90;7.00;;;8.30;99.90;;;;;;4169574;28;20111;-75
2023/12/20 01:11:49;;;;;;;13.93;6.82;;;8.30;99.90;;;;;;4153338;28;20391;-75
2023/12/20 01:13:50;;;;;;;15.20;7.25;;;8.30;99.90;;;;;;4167108;28;20711;-75
2023/12/20 01:15:50;;;;;;;15.38;8.23;;;8.20;99.90;;;;;;4167216;28;20482;-74
2023/12/20 01:17:51;;;;;;;16.25;7.75;;;8.20;99.90;;;;;;4163721;28;20049;-74
2023/12/20 01:19:52;;;;;;;13.80;6.75;;;8.20;99.90;;;;;;4163991;28;20037;-74
2023/12/20 01:21:53;;;;;;;15.05;7.60;;;8.20;99.90;;;;;;4165317;28;20525;-74
2023/12/20 01:23:53;;;;;;;15.70;6.70;;;8.20;99.90;;;;;;4164436;28;20064;-75
2023/12/20 01:25:54;;;;;;;15.05;5.75;;;8.20;99.90;;;;;;4165408;28;20550;-75
2023/12/20 01:27:54;;;;;;;12.25;6.30;;;8.20;99.90;;;;;;4173291;28;20033;-75
2023/12/20 01:29:55;;;;;;;13.82;5.88;;;8.20;99.90;;;;;;4167962;28;20433;-75
2023/12/20 01:31:55;;;;;;;13.82;6.07;;;8.10;99.90;;;;;;4162448;28;20052;-75
2023/12/20 01:33:56;;;;;;;11.13;5.47;;;8.10;99.90;;;;;;4163142;28;20386;-74
2023/12/20 01:35:56;;;;;;;11.43;5.97;;;8.10;99.90;;;;;;4166298;28;20383;-75
2023/12/20 01:37:57;;;;;;;10.90;6.03;;;8.00;99.90;;;;;;4162889;28;20103;-75
2023/12/20 01:39:58;;;;;;;15.00;5.95;;;8.00;99.90;;;;;;4163954;28;20076;-74
2023/12/20 01:41:59;;;;;;;10.88;5.10;;;8.00;99.90;;;;;;4152494;28;20026;-75
2023/12/20 01:43:59;;;;;;;11.40;5.65;;;8.00;99.90;;;;;;4162895;28;20085;-74
2023/12/20 01:46:00;;;;;;;11.25;5.88;;;8.00;99.90;;;;;;4168754;28;20029;-74
2023/12/20 01:48:02;;;;;;;13.15;5.30;;;8.00;99.90;;;;;;4162246;28;20033;-74
2023/12/20 01:50:04;;;;;;;14.85;5.05;;;8.00;99.90;;;;;;4166880;28;20060;-74
2023/12/20 01:52:06;;;;;;;10.75;5.28;;;8.00;99.90;;;;;;4168662;28;20037;-73
2023/12/20 01:54:07;;;;;;;9.93;5.32;;;7.90;99.90;;;;;;4151962;28;20029;-73
2023/12/20 01:56:08;;;;;;;10.02;5.57;;;7.90;99.90;;;;;;4161109;28;20518;-74
2023/12/20 01:58:10;;;;;;;14.13;5.82;;;7.90;99.90;;;;;;4161632;28;20041;-74
2023/12/20 02:00:12;;;;;;;15.95;5.65;;;7.90;99.90;;;;;;4166873;28;20033;-74
2023/12/20 02:02:13;;;;;;;14.25;5.95;;;7.90;99.90;;;;;;4162740;28;20560;-74
2023/12/20 02:04:14;;;;;;;14.93;4.95;;;7.90;99.90;;;;;;4163802;28;20486;-74
2023/12/20 02:06:17;;;;;;;13.82;6.00;;;7.90;99.90;;;;;;4163433;28;20124;-74
2023/12/20 02:08:17;;;;;;;18.25;5.78;;;7.80;99.90;;;;;;4164740;28;20045;-74
2023/12/20 02:10:18;;;;;;;19.33;6.22;;;7.80;99.90;;;;;;4150741;28;20046;-74
2023/12/20 02:12:18;;;;;;;17.33;5.07;;;7.80;99.90;;;;;;4156680;28;20537;-74
2023/12/20 02:14:19;;;;;;;12.73;4.97;;;7.70;99.90;;;;;;4156713;28;20116;-74
2023/12/20 02:16:21;;;;;;;13.20;4.80;;;7.70;99.90;;;;;;4140508;28;20075;-74
2023/12/20 02:18:22;;;;;;;14.02;4.93;;;7.70;99.90;;;;;;4154113;28;20368;-74
2023/12/20 02:20:22;;;;;;;10.02;4.22;;;7.70;99.90;;;;;;4150339;28;20119;-74
2023/12/20 02:22:23;;;;;;;14.50;4.15;;;7.70;99.90;;;;;;4154403;28;20402;-74
2023/12/20 02:24:23;;;;;;;15.98;4.75;;;7.70;99.90;;;;;;4157015;28;20033;-75
2023/12/20 02:26:24;;;;;;;15.63;4.15;;;7.70;99.90;;;;;;4166634;28;20047;-74
2023/12/20 02:28:25;;;;;;;15.07;4.10;;;7.60;99.90;;;;;;4153800;28;20037;-74
2023/12/20 02:30:25;;;;;;;11.32;3.30;;;7.60;99.90;;;;;;4151764;28;20285;-74
2023/12/20 02:32:26;;;;;;;10.93;3.10;;;7.60;99.90;;;;;;4160887;28;20041;-74
2023/12/20 02:34:26;;;;;;;10.57;3.00;;;7.50;99.90;;;;;;4166670;28;20099;-73
2023/12/20 02:36:27;;;;;;;6.30;2.70;;;7.60;99.90;;;;;;4161261;28;20155;-76
2023/12/20 02:38:27;;;;;;;5.85;2.55;;;7.50;99.90;;;;;;4165181;28;20172;-76
2023/12/20 02:40:28;;;;;;;9.88;3.38;;;7.50;99.90;;;;;;4151752;28;20045;-75
2023/12/20 02:42:29;;;;;;;11.82;2.80;;;7.40;99.90;;;;;;4171623;28;20465;-77
2023/12/20 02:44:29;;;;;;;16.30;2.88;;;7.40;99.90;;;;;;4165676;28;20029;-76
2023/12/20 02:46:30;;;;;;;12.43;3.83;;;7.40;99.90;;;;;;4152291;28;20034;-75
2023/12/20 02:48:30;;;;;;;11.48;3.00;;;7.40;99.90;;;;;;4165019;28;20382;-76
2023/12/20 02:50:31;;;;;;;12.20;2.83;;;7.30;99.90;;;;;;4166414;28;20117;-76
2023/12/20 02:52:31;;;;;;;18.77;3.50;;;7.30;99.90;;;;;;4166176;28;20029;-76
2023/12/20 02:54:32;;;;;;;7.07;2.10;;;7.30;99.90;;;;;;4169698;28;20112;-74
2023/12/20 02:56:33;;;;;;;23.05;3.47;;;7.30;99.90;;;;;;4165457;28;20036;-76
2023/12/20 02:58:34;;;;;;;14.55;2.63;;;7.30;99.90;;;;;;4168815;28;20041;-75
2023/12/20 03:00:34;;;;;;;10.13;2.40;;;7.30;99.90;;;;;;4171427;28;20495;-76
2023/12/20 03:02:35;;;;;;;12.75;2.60;;;7.30;99.90;;;;;;4165889;28;20510;-75
2023/12/20 03:04:36;;;;;;;11.57;2.60;;;7.30;99.90;;;;;;4166614;28;20428;-76
2023/12/20 03:06:36;;;;;;;10.65;2.75;;;7.30;99.90;;;;;;4169309;28;20038;-76
2023/12/20 03:08:38;;;;;;;14.68;2.40;;;7.30;99.90;;;;;;4160758;28;20696;-76
2023/12/20 03:10:39;;;;;;;11.60;2.40;;;7.40;99.90;;;;;;4165305;28;20029;-76
2023/12/20 03:12:40;;;;;;;8.38;2.30;;;7.40;99.90;;;;;;4169252;28;20314;-75
2023/12/20 03:14:41;;;;;;;10.47;2.30;;;7.30;99.90;;;;;;4162514;28;20037;-76
2023/12/20 03:16:41;;;;;;;18.52;3.05;;;7.40;99.90;;;;;;4169647;28;20395;-75
2023/12/20 03:18:42;;;;;;;10.27;2.42;;;7.30;99.90;;;;;;4162458;28;20541;-75
2023/12/20 03:20:42;;;;;;;12.93;2.65;;;7.40;99.90;;;;;;4161365;28;20479;-76
2023/12/20 03:22:43;;;;;;;12.05;2.22;;;7.30;99.90;;;;;;4169801;28;20025;-76
2023/12/20 03:24:44;;;;;;;13.48;3.28;;;7.30;99.90;;;;;;4166935;28;20789;-75
2023/12/20 03:26:44;;;;;;;11.38;2.65;;;7.30;99.90;;;;;;4173378;28;20548;-75
2023/12/20 03:28:45;;;;;;;11.30;2.03;;;7.30;99.90;;;;;;4163251;28;20041;-75
2023/12/20 03:30:45;;;;;;;12.13;2.75;;;7.30;99.90;;;;;;4167914;28;20371;-76
2023/12/20 03:32:47;;;;;;;7.55;1.90;;;7.30;99.90;;;;;;4166296;28;20052;-75
2023/12/20 03:34:48;;;;;;;9.60;2.42;;;7.30;99.90;;;;;;4164950;28;20044;-76
2023/12/20 03:36:48;;;;;;;14.68;3.17;;;7.30;99.90;;;;;;4173420;28;20040;-75
2023/12/20 03:38:49;;;;;;;8.30;2.40;;;7.30;99.90;;;;;;4165923;28;20053;-75
2023/12/20 03:40:50;;;;;;;10.65;2.55;;;7.30;99.90;;;;;;4169128;28;20501;-75
2023/12/20 03:42:50;;;;;;;12.88;2.72;;;7.20;99.90;;;;;;4165016;28;20049;-75
2023/12/20 03:44:51;;;;;;;9.73;2.35;;;7.20;99.90;;;;;;4162757;28;20474;-75
2023/12/20 03:46:52;;;;;;;10.18;2.70;;;7.20;99.90;;;;;;4161984;28;20585;-74
2023/12/20 03:48:52;;;;;;;14.07;2.97;;;7.20;99.90;;;;;;4166307;28;20486;-72
2023/12/20 03:50:53;;;;;;;9.38;2.40;;;7.20;99.90;;;;;;4156232;28;20036;-73
2023/12/20 03:52:53;;;;;;;13.80;3.33;;;7.20;99.90;;;;;;4155826;28;20025;-73
2023/12/20 03:54:54;;;;;;;11.93;2.78;;;7.20;99.90;;;;;;4156529;28;20399;-74
2023/12/20 03:56:54;;;;;;;9.75;2.28;;;7.20;99.90;;;;;;4150923;28;20487;-73
2023/12/20 03:58:55;;;;;;;14.48;2.75;;;7.10;99.90;;;;;;4156208;28;20482;-73
2023/12/20 04:00:55;;;;;;;11.40;2.58;;;7.10;99.90;;;;;;4149321;28;20025;-71
2023/12/20 04:02:56;;;;;;;8.68;2.40;;;7.00;99.90;;;;;;4158476;28;20661;-73
2023/12/20 04:04:57;;;;;;;10.90;3.00;;;7.10;99.90;;;;;;4160056;28;20025;-73
2023/12/20 04:06:57;;;;;;;16.23;3.50;;;7.10;99.90;;;;;;4160087;28;20041;-73
2023/12/20 04:08:58;;;;;;;9.15;2.70;;;7.10;99.90;;;;;;4154607;28;20613;-73
2023/12/20 04:10:59;;;;;;;7.82;2.60;;;7.00;99.90;;;;;;4158428;28;20037;-73
2023/12/20 04:12:59;;;;;;;14.13;3.45;;;7.00;99.90;;;;;;4155253;28;20514;-73
2023/12/20 04:15:00;;;;;;;11.90;2.63;;;7.10;99.90;;;;;;4158393;28;20037;-74
2023/12/20 04:17:00;;;;;;;10.05;3.25;;;7.10;99.90;;;;;;4151545;28;20080;-73
2023/12/20 04:19:01;;;;;;;8.25;2.42;;;7.00;99.90;;;;;;4153586;28;20439;-74
2023/12/20 04:21:02;;;;;;;10.20;2.78;;;7.10;99.90;;;;;;4149523;28;20065;-74
2023/12/20 04:23:02;;;;;;;10.95;3.00;;;7.10;99.90;;;;;;4157577;28;20033;-73
2023/12/20 04:25:03;;;;;;;11.38;2.40;;;7.00;99.90;;;;;;4151532;28;20045;-75
2023/12/20 04:27:04;;;;;;;8.25;2.50;;;7.10;99.90;;;;;;4156044;28;20548;-73
2023/12/20 04:29:04;;;;;;;9.50;2.42;;;7.00;99.90;;;;;;4161843;28;20148;-74
2023/12/20 04:31:05;;;;;;;9.95;2.35;;;7.00;99.90;;;;;;4153255;28;20462;-73
2023/12/20 04:33:05;;;;;;;6.90;2.63;;;7.10;99.90;;;;;;4158768;28;20386;-74
2023/12/20 04:35:08;;;;;;;14.70;3.30;;;7.00;99.90;;;;;;4159856;28;20426;-74
2023/12/20 04:37:08;;;;;;;9.93;2.58;;;7.00;99.90;;;;;;4163200;28;20029;-74
2023/12/20 04:39:11;;;;;;;10.50;2.95;;;7.00;99.90;;;;;;4160991;28;20053;-73
2023/12/20 04:41:15;;;;;;;16.77;3.60;;;7.00;99.90;;;;;;4157680;28;20506;-74
2023/12/20 04:43:16;;;;;;;15.70;4.00;;;7.00;99.90;;;;;;4155632;28;20091;-74
2023/12/20 04:45:17;;;;;;;10.25;3.08;;;7.00;99.90;;;;;;4158663;28;20444;-73
2023/12/20 04:47:17;;;;;;;15.40;3.30;;;7.00;99.90;;;;;;4161205;28;20037;-73
2023/12/20 04:49:18;;;;;;;13.18;3.33;;;7.00;99.90;;;;;;4157781;28;20053;-74
2023/12/20 04:51:19;;;;;;;11.50;3.72;;;7.00;99.90;;;;;;4154149;28;20405;-74
2023/12/20 04:53:19;;;;;;;14.25;3.78;;;7.00;99.90;;;;;;4154242;28;20060;-74
2023/12/20 04:55:20;;;;;;;13.80;3.25;;;7.00;99.90;;;;;;4154926;28;20030;-73
2023/12/20 04:57:21;;;;;;;19.63;4.72;;;7.00;99.90;;;;;;4155567;28;20033;-73
2023/12/20 04:59:22;;;;;;;14.57;3.70;;;6.90;99.90;;;;;;4155327;28;20124;-74
2023/12/20 05:01:23;;;;;;;11.32;3.58;;;6.90;99.90;;;;;;4152858;28;20045;-74
2023/12/20 05:03:23;;;;;;;17.75;3.53;;;6.90;99.90;;;;;;4161824;28;20061;-74
2023/12/20 05:05:24;;;;;;;11.25;3.22;;;6.90;99.90;;;;;;4159044;28;20071;-74
2023/12/20 05:07:24;;;;;;;14.90;3.70;;;6.90;99.90;;;;;;4158583;28;20103;-74
2023/12/20 05:09:25;;;;;;;11.90;3.90;;;6.90;99.90;;;;;;4157989;28;20463;-75
2023/12/20 05:11:26;;;;;;;14.93;4.15;;;6.90;99.90;;;;;;4155425;28;20411;-74
2023/12/20 05:13:26;;;;;;;13.27;3.75;;;6.90;99.90;;;;;;4156989;28;21315;-74
2023/12/20 05:15:27;;;;;;;16.38;3.72;;;6.90;99.90;;;;;;4149701;28;20605;-73
2023/12/20 05:17:27;;;;;;;14.00;3.92;;;6.90;99.90;;;;;;4156723;28;20064;-74
2023/12/20 05:19:28;;;;;;;15.50;4.28;;;6.90;99.90;;;;;;4157412;28;20040;-74
2023/12/20 05:21:30;;;;;;;19.25;4.30;;;7.00;99.90;;;;;;4163051;28;20462;-74
2023/12/20 05:23:31;;;;;;;13.15;4.05;;;7.00;99.90;;;;;;4160080;28;20026;-74
2023/12/20 05:25:32;;;;;;;14.13;3.90;;;7.00;99.90;;;;;;4161433;28;20956;-73
2023/12/20 05:27:33;;;;;;;15.70;4.35;;;7.00;99.90;;;;;;4153354;28;20037;-73
2023/12/20 05:29:33;;;;;;;9.70;3.60;;;7.00;99.90;;;;;;4159510;28;20490;-74
2023/12/20 05:31:34;;;;;;;10.77;4.03;;;7.00;99.90;;;;;;4165926;28;20032;-73
2023/12/20 05:33:35;;;;;;;18.48;4.05;;;7.00;99.90;;;;;;4165118;28;20032;-74
2023/12/20 05:35:35;;;;;;;15.50;4.03;;;7.00;99.90;;;;;;4160259;28;20609;-74
2023/12/20 05:37:36;;;;;;;12.27;4.35;;;7.00;99.90;;;;;;4159298;28;20037;-73
2023/12/20 05:39:36;;;;;;;14.32;4.10;;;7.00;99.90;;;;;;4158703;28;20041;-73
2023/12/20 05:41:37;;;;;;;18.88;4.72;;;7.00;99.90;;;;;;4157022;28;20041;-73
2023/12/20 05:43:38;;;;;;;14.88;4.05;;;7.00;99.90;;;;;;4165460;28;20449;-73
2023/12/20 05:45:38;;;;;;;14.00;4.20;;;7.00;99.90;;;;;;4165948;28;20036;-73
2023/12/20 05:47:39;;;;;;;10.45;3.40;;;7.10;99.90;;;;;;4168612;28;20461;-73
2023/12/20 05:49:40;;;;;;;15.07;3.95;;;7.10;99.90;;;;;;4165637;28;20537;-74
2023/12/20 05:51:40;;;;;;;15.45;3.60;;;7.10;99.90;;;;;;4153465;28;20482;-73
2023/12/20 05:53:41;;;;;;;10.00;3.75;;;7.10;99.90;;;;;;4163943;28;20029;-74
2023/12/20 05:55:41;;;;;;;12.30;3.88;;;7.10;99.90;;;;;;4170017;28;20460;-73
2023/12/20 05:57:43;;;;;;;12.38;3.47;;;7.20;99.90;;;;;;4166614;28;20429;-73
2023/12/20 05:59:43;;;;;;;11.52;3.70;;;7.20;99.90;;;;;;4158361;28;20108;-73
2023/12/20 06:01:44;;;;;;;16.45;3.88;;;7.10;99.90;;;;;;4152774;28;20030;-74
2023/12/20 06:03:47;;;;;;;21.10;5.10;;;7.20;99.90;;;;;;4153137;28;20052;-73
2023/12/20 06:05:48;;;;;;;10.65;3.97;;;7.20;99.90;;;;;;4159043;28;20088;-74
2023/12/20 06:07:50;;;;;;;12.02;4.07;;;7.20;99.90;;;;;;4152024;28;20053;-75
2023/12/20 06:09:51;;;;;;;15.10;4.03;;;7.20;99.90;;;;;;4159589;28;20064;-77
2023/12/20 06:11:51;;;;;;;16.30;4.13;;;7.20;99.90;;;;;;4157983;28;20034;-77
2023/12/20 06:13:53;;;;;;;15.82;4.45;;;7.20;99.90;;;;;;4162029;28;20106;-77
2023/12/20 06:15:55;;;;;;;19.35;5.05;;;7.20;99.90;;;;;;4153377;28;20029;-77
2023/12/20 06:17:55;;;;;;;10.73;3.80;;;7.20;99.90;;;;;;4157171;28;20109;-74
2023/12/20 06:19:56;;;;;;;13.05;4.13;;;7.20;99.90;;;;;;4163868;28;20073;-75
2023/12/20 06:21:57;;;;;;;12.73;5.03;;;7.20;99.90;;;;;;4146716;28;20686;-74
2023/12/20 06:23:59;;;;;;;14.65;3.55;;;7.20;99.90;;;;;;4150105;28;20534;-74
2023/12/20 06:26:00;;;;;;;16.83;4.10;;;7.30;99.90;;;;;;4155920;28;20503;-74
2023/12/20 06:28:00;;;;;;;13.95;3.90;;;7.30;99.90;;;;;;4150414;28;20040;-78
2023/12/20 06:30:01;;;;;;;24.13;5.40;;;7.30;99.90;;;;;;4156995;28;20042;-77
2023/12/20 06:32:02;;;;;;;17.55;3.97;;;7.30;99.90;;;;;;4148323;28;20515;-76
2023/12/20 06:34:03;;;;;;;15.90;3.65;;;7.40;99.90;;;;;;4153318;28;20095;-77
2023/12/20 06:36:04;;;;;;;16.02;4.13;;;7.30;99.90;;;;;;4151557;28;20041;-77
2023/12/20 06:38:04;;;;;;;10.57;3.60;;;7.40;99.90;;;;;;4148307;28;20049;-77
2023/12/20 06:40:06;;;;;;;15.85;4.07;;;7.40;99.90;;;;;;4131553;28;20054;-77
2023/12/20 06:42:07;;;;;;;11.80;3.17;;;7.30;99.90;;;;;;4152281;28;20041;-77
2023/12/20 06:44:08;;;;;;;19.25;4.03;;;7.40;99.90;;;;;;4155083;28;20770;-78
2023/12/20 06:47:22;;;;;;;14.57;3.22;;;7.40;99.90;;;;;;4146176;27;20394;-69
2023/12/20 06:49:23;;;;;;;14.63;4.15;;;7.40;99.90;;;;;;4152690;28;20068;-69
2023/12/20 06:51:25;;;;;;;13.32;3.92;;;7.40;99.90;;;;;;4148930;28;20076;-69
2023/12/20 06:53:26;;;;;;;13.15;4.00;;;7.40;99.90;;;;;;4151531;28;20045;-69
2023/12/20 06:55:26;;;;;;;14.25;3.67;;;7.40;99.90;;;;;;4149783;28;20034;-69
2023/12/20 06:57:27;;;;;;;25.98;4.90;;;7.40;99.90;;;;;;4149834;28;20380;-69
2023/12/20 06:59:28;;;;;;;16.00;4.15;;;7.40;99.90;;;;;;4152230;28;20045;-69
2023/12/20 07:01:28;;;;;;;23.95;5.78;;;7.40;99.90;;;;;;4149285;28;20053;-69
2023/12/20 07:03:29;;;;;;;19.38;3.92;;;7.40;99.90;;;;;;4151721;28;20061;-69
2023/12/20 07:05:29;;;;;;;24.63;4.93;;;7.40;99.90;;;;;;4149325;28;20041;-69
2023/12/20 07:07:30;;;;;;;16.95;3.72;;;7.40;99.90;;;;;;4152802;28;20064;-69
2023/12/20 07:09:31;;;;;;;16.35;4.18;;;7.40;99.90;;;;;;4150876;28;20034;-69
2023/12/20 07:11:32;;;;;;;20.98;4.63;;;7.40;99.90;;;;;;4150857;28;20478;-69
2023/12/20 07:13:32;;;;;;;12.52;4.35;;;7.40;99.90;;;;;;4148978;28;20447;-69
2023/12/20 07:15:33;;;;;;;21.00;4.93;;;7.40;99.90;;;;;;4148446;28;20033;-69
2023/12/20 07:17:34;;;;;;;13.77;3.60;;;7.40;99.90;;;;;;4151463;28;20050;-69
2023/12/20 07:19:34;;;;;;;16.17;3.63;;;7.50;99.90;;;;;;4150317;28;20533;-69
2023/12/20 07:21:35;;;;;;;13.38;3.80;;;7.40;99.90;;;;;;4153923;28;20041;-69
2023/12/20 07:23:35;;;;;;;12.65;3.90;;;7.50;99.90;;;;;;4157315;28;20100;-69
2023/12/20 07:25:36;;;;;;;15.63;3.80;;;7.40;99.90;;;;;;4155067;28;20056;-69
2023/12/20 07:27:37;;;;;;;19.02;4.50;;;7.50;99.90;;;;;;4157597;28;20132;-69
2023/12/20 07:29:37;;;;;;;11.45;2.83;;;7.50;99.90;;;;;;4159870;28;20069;-69
2023/12/20 07:31:38;;;;;;;13.68;3.42;;;7.50;99.90;;;;;;4158482;28;20473;-69
2023/12/20 07:33:39;;;;;;;13.45;3.42;;;7.50;99.90;;;;;;4159498;28;20033;-69
2023/12/20 07:35:39;;;;;;;22.90;5.03;;;7.50;99.90;;;;;;4158684;28;20632;-69
2023/12/20 07:37:40;;;;;;;17.50;4.07;;;7.50;99.90;;;;;;4159150;28;20473;-69
2023/12/20 07:39:41;;;;;;;22.95;5.13;;;7.50;99.90;;;;;;4156109;28;20049;-69
2023/12/20 07:41:41;;;;;;;18.85;4.30;;;7.50;99.90;;;;;;4152183;28;20034;-69
2023/12/20 07:43:42;;;;;;;13.93;4.05;;;7.50;99.90;;;;;;4151218;28;20054;-69
2023/12/20 07:45:42;;;;;;;17.83;3.75;;;7.50;99.90;;;;;;4152964;28;20041;-69
2023/12/20 07:47:43;;;;;;;20.42;4.18;;;7.50;99.90;;;;;;4156717;28;20446;-69
2023/12/20 07:49:44;;;;;;;12.52;3.83;;;7.50;99.90;;;;;;4154157;28;20120;-69
2023/12/20 07:51:44;;;;;;;16.08;4.75;;;7.50;99.90;;;;;;4156473;28;20034;-69
2023/12/20 07:53:45;;;;;;;15.02;4.18;;;7.50;99.90;;;;;;4155606;28;20037;-69
2023/12/20 07:55:45;;;;;;;23.50;4.90;;;7.50;99.90;;;;;;4150770;28;20034;-69
2023/12/20 07:57:46;;;;;;;23.30;4.43;;;7.50;99.90;;;;;;4144189;28;20048;-69
2023/12/20 07:59:46;;;;;;;20.38;4.35;;;7.50;99.90;;;;;;4140617;28;20569;-69
2023/12/20 08:01:47;;;;;;;23.70;4.43;;;7.50;99.90;;;;;;4145649;28;20057;-69
2023/12/20 08:03:49;;;;;;;14.52;4.50;;;7.50;99.90;;;;;;4144262;28;20038;-69
2023/12/20 08:05:49;;;;;;;20.33;4.75;;;7.50;99.90;;;;;;4141185;28;20449;-68
2023/12/20 08:07:50;;;;;;;19.08;5.03;;;7.50;99.90;;;;;;4145593;28;20037;-69
2023/12/20 08:09:51;;;;;;;23.55;5.03;;;7.50;99.90;;;;;;4133065;28;20038;-69
2023/12/20 08:11:52;;;;;;;15.52;4.47;;;7.50;99.90;;;;;;4143971;28;20045;-69
2023/12/20 08:13:52;;;;;;;11.55;3.85;;;7.50;99.90;;;;;;4145907;28;20038;-69
2023/12/20 08:15:53;;;;;;;20.05;4.35;;;7.50;99.90;;;;;;4138380;28;20042;-69
2023/12/20 08:17:54;;;;;;;27.98;4.05;;;7.50;99.90;;;;;;4132480;28;20066;-69
2023/12/20 08:19:55;;;;;;;12.77;3.40;;;7.50;99.90;;;;;;4143624;28;20045;-69
2023/12/20 08:21:56;;;;;;;16.15;3.88;;;7.50;99.90;;;;;;4145453;28;20042;-69
2023/12/20 08:23:57;;;;;;;17.55;3.80;;;7.50;99.90;;;;;;4143848;28;20049;-69
2023/12/20 08:25:57;;;;;;;13.95;3.95;;;7.50;99.90;;;;;;4142075;28;20506;-69
2023/12/20 08:27:58;;;;;;;23.63;4.18;;;7.50;99.90;;;;;;4158612;28;20037;-69
2023/12/20 08:29:58;;;;;;;12.80;3.70;;;7.50;99.90;;;;;;4144448;28;20040;-69
2023/12/20 08:31:59;;;;;;;13.32;3.60;;;7.60;99.90;;;;;;4145271;28;20026;-69
2023/12/20 08:34:00;;;;;;;13.52;3.53;;;7.50;99.90;;;;;;4140924;28;20064;-69
2023/12/20 08:36:05;;;;;;;17.35;4.40;;;7.50;99.90;;;;;;4140606;28;20034;-69
2023/12/20 08:38:06;;;;;;;20.45;4.55;;;7.50;99.90;;;;;;4143724;28;20065;-69
2023/12/20 08:40:07;;;;;;;24.65;4.75;;;7.50;99.90;;;;;;4141192;28;20060;-69
2023/12/20 08:42:07;;;;;;;16.10;3.58;;;7.50;99.90;;;;;;4141180;28;20538;-69
2023/12/20 08:44:09;;;;;;;18.65;3.40;;;7.60;99.90;;;;;;4145522;28;20057;-69
2023/12/20 08:46:09;;;;;;;15.27;3.75;;;7.50;99.90;;;;;;4141476;28;20058;-69
2023/12/20 08:48:10;;;;;;;21.65;4.38;;;7.50;99.90;;;;;;4144449;28;20034;-69
2023/12/20 08:50:11;;;;;;;14.90;3.50;;;7.50;99.90;;;;;;4144720;28;20478;-71
2023/12/20 08:52:11;;;;;;;22.70;4.65;;;7.50;99.90;;;;;;4139782;28;20406;-69
2023/12/20 08:54:13;;;;;;;12.07;3.80;;;7.60;99.90;;;;;;4145727;28;20399;-69
2023/12/20 08:56:13;;;;;;;13.80;3.30;;;7.50;99.90;;;;;;4145248;28;20082;-69
2023/12/20 08:58:14;;;;;;;18.58;4.43;;;7.60;99.90;;;;;;4145073;28;20367;-69
2023/12/20 09:00:16;;;;;;;14.05;3.55;;;7.60;99.90;;;;;;4140769;28;20049;-69
2023/12/20 09:02:17;;;;;;;12.75;3.50;;;7.50;99.90;;;;;;4118375;28;20577;-69
2023/12/20 09:04:17;;;;;;;20.35;3.55;;;7.60;99.90;;;;;;4147119;28;20042;-69
2023/12/20 09:06:18;;;;;;;14.63;3.45;;;7.60;99.90;;;;;;4143651;28;20073;-69
2023/12/20 09:08:19;;;;;;;22.00;4.55;;;7.60;99.90;;;;;;4135146;28;20040;-69
2023/12/20 09:10:22;;;;;;;23.70;4.40;;;7.60;99.90;;;;;;4142149;28;20539;-69
2023/12/20 09:12:22;;;;;;;14.45;3.60;;;7.50;99.90;;;;;;4145145;28;20066;-69
2023/12/20 09:14:23;;;;;;;14.55;4.00;;;7.50;99.90;;;;;;4142550;28;20041;-70
2023/12/20 09:16:24;;;;;;;16.88;3.85;;;7.50;99.90;;;;;;4140975;28;20042;-69
2023/12/20 09:18:24;;;;;;;14.18;3.63;;;7.60;99.90;;;;;;4143976;28;20034;-64
2023/12/20 09:20:25;;;;;;;17.75;3.90;;;7.60;99.90;;;;;;4144038;28;20410;-63
2023/12/20 09:22:26;;;;;;;14.27;3.80;;;7.60;99.90;;;;;;4144206;28;20493;-64
2023/12/20 09:24:26;;;;;;;14.93;3.70;;;7.50;99.90;;;;;;4144452;28;20038;-63
2023/12/20 09:26:27;;;;;;;13.40;3.15;;;7.60;99.90;;;;;;4137196;28;20038;-63
2023/12/20 09:28:27;;;;;;;14.85;3.58;;;7.60;99.90;;;;;;4138551;28;20513;-63
2023/12/20 09:30:29;;;;;;;19.45;4.40;;;7.60;99.90;;;;;;4143132;28;20048;-73
2023/12/20 09:32:29;;;;;;;17.55;4.03;;;7.60;99.90;;;;;;4135865;28;20030;-75
2023/12/20 09:34:30;;;;;;;18.52;3.85;;;7.70;99.90;;;;;;4141372;28;20045;-73
2023/12/20 09:36:35;;;;;;;10.73;3.10;;;7.60;99.90;;;;;;4138754;28;20034;-74
2023/12/20 09:38:36;;;;;;;20.30;3.90;;;7.60;99.90;;;;;;4141966;28;20038;-74
2023/12/20 09:40:41;;;;;;;11.43;2.80;;;7.60;99.90;;;;;;4138738;28;20034;-75
2023/12/20 09:42:50;;;;;;;23.33;5.22;;;7.60;99.90;;;;;;4139116;28;20047;-74
2023/12/20 09:44:51;;;;;;;10.65;3.08;;;7.60;99.90;;;;;;4144193;28;20049;-74
2023/12/20 09:46:54;;;;;;;9.70;3.17;;;7.70;99.90;;;;;;4142563;28;20077;-74
2023/12/20 09:48:55;;;;;;;11.80;2.80;;;7.70;99.90;;;;;;4145811;28;20034;-74
2023/12/20 09:50:56;;;;;;;11.50;3.33;;;7.70;99.90;;;;;;4142194;28;20037;-73
2023/12/20 09:52:59;;;;;;;17.25;4.18;;;7.70;99.90;;;;;;4138117;28;20034;-72
2023/12/20 09:55:04;;;;;;;14.23;3.10;;;7.70;99.90;;;;;;4143237;28;20060;-74
2023/12/20 09:57:05;;;;;;;17.70;3.10;;;7.70;99.90;;;;;;4142518;28;20049;-73
2023/12/20 09:59:06;;;;;;;10.80;3.15;;;7.80;99.90;;;;;;4136935;28;20124;-71
2023/12/20 10:01:08;;;;;;;10.00;3.25;;;7.70;99.90;;;;;;4137225;28;20493;-70
2023/12/20 10:03:09;;;;;;;14.32;3.35;;;7.80;99.90;;;;;;4143364;28;20050;-71
2023/12/20 10:05:16;;;;;;;16.75;3.80;;;7.80;99.90;;;;;;4141165;28;20478;-71
2023/12/20 10:07:17;;;;;;;14.43;3.20;;;7.80;99.90;;;;;;4136271;28;20425;-71
2023/12/20 10:09:17;;;;;;;12.30;3.00;;;7.80;99.90;;;;;;4142113;28;20057;-71
2023/12/20 10:11:19;;;;;;;11.90;3.13;;;7.80;99.90;;;;;;4144213;28;20073;-71
2023/12/20 10:13:19;;;;;;;18.65;4.25;;;7.90;99.90;;;;;;4139988;28;20038;-71
2023/12/20 10:15:21;;;;;;;20.67;3.90;;;7.80;99.90;;;;;;4140258;28;20486;-71
2023/12/20 10:17:21;;;;;;;12.30;3.50;;;7.80;99.90;;;;;;4130157;28;20461;-71
2023/12/20 10:19:22;;;;;;;21.60;3.60;;;7.90;99.90;;;;;;4140060;28;20030;-71
2023/12/20 10:21:24;;;;;;;13.15;3.67;;;7.90;99.90;;;;;;4137953;28;20033;-69
2023/12/20 10:23:25;;;;;;;12.07;3.70;;;7.90;99.90;;;;;;4141068;28;20502;-70
2023/12/20 10:25:26;;;;;;;17.42;3.95;;;7.90;99.90;;;;;;4138161;28;20034;-70
2023/12/20 10:27:26;;;;;;;17.23;3.78;;;7.90;99.90;;;;;;4134775;28;20522;-71
2023/12/20 10:29:27;;;;;;;15.18;3.58;;;7.90;99.90;;;;;;4141626;28;21597;-70
2023/12/20 10:31:30;;;;;;;13.25;3.70;;;7.90;99.90;;;;;;4138074;28;20480;-70